sensor_id;sensor_type;location;lat;lon;timestamp;P1;durP1;ratioP1;P2;durP2;ratioP2
35743;SDS011;21867;52.012;4.324;2022-08-03T00:00:26;10.70;;;3.35;;
35743;SDS011;21867;52.012;4.324;2022-08-03T00:02:53;8.38;;;2.53;;
35743;SDS011;21867;52.012;4.324;2022-08-03T00:05:21;9.20;;;2.80;;
35743;SDS011;21867;52.012;4.324;2022-08-03T00:07:49;10.00;;;2.78;;
35743;SDS011;21867;52.012;4.324;2022-08-03T00:10:18;8.77;;;2.95;;
35743;SDS011;21867;52.012;4.324;2022-08-03T00:12:45;10.40;;;2.10;;
35743;SDS011;21867;52.012;4.324;2022-08-03T00:15:12;14.30;;;2.83;;
35743;SDS011;21867;52.012;4.324;2022-08-03T00:17:42;10.32;;;2.85;;
35743;SDS011;21867;52.012;4.324;2022-08-03T00:20:19;17.88;;;3.63;;
35743;SDS011;21867;52.012;4.324;2022-08-03T00:22:46;11.60;;;3.20;;
35743;SDS011;21867;52.012;4.324;2022-08-03T00:25:15;7.28;;;2.40;;
35743;SDS011;21867;52.012;4.324;2022-08-03T00:27:43;14.93;;;3.15;;
35743;SDS011;21867;52.012;4.324;2022-08-03T00:30:10;8.50;;;2.85;;
35743;SDS011;21867;52.012;4.324;2022-08-03T00:32:40;13.68;;;3.22;;
35743;SDS011;21867;52.012;4.324;2022-08-03T00:35:10;10.75;;;3.40;;
35743;SDS011;21867;52.012;4.324;2022-08-03T00:37:57;6.22;;;2.70;;
35743;SDS011;21867;52.012;4.324;2022-08-03T00:40:26;15.07;;;2.85;;
35743;SDS011;21867;52.012;4.324;2022-08-03T00:42:54;11.23;;;2.30;;
35743;SDS011;21867;52.012;4.324;2022-08-03T00:45:22;13.63;;;3.60;;
35743;SDS011;21867;52.012;4.324;2022-08-03T00:47:50;10.70;;;3.47;;
35743;SDS011;21867;52.012;4.324;2022-08-03T00:50:17;11.68;;;2.88;;
35743;SDS011;21867;52.012;4.324;2022-08-03T00:52:45;10.32;;;3.50;;
35743;SDS011;21867;52.012;4.324;2022-08-03T00:55:13;14.07;;;3.33;;
35743;SDS011;21867;52.012;4.324;2022-08-03T00:57:42;10.20;;;2.83;;
35743;SDS011;21867;52.012;4.324;2022-08-03T01:00:10;9.57;;;2.90;;
35743;SDS011;21867;52.012;4.324;2022-08-03T01:02:38;12.77;;;3.95;;
35743;SDS011;21867;52.012;4.324;2022-08-03T01:05:05;10.27;;;3.72;;
35743;SDS011;21867;52.012;4.324;2022-08-03T01:07:38;13.98;;;3.38;;
35743;SDS011;21867;52.012;4.324;2022-08-03T01:10:22;11.15;;;3.55;;
35743;SDS011;21867;52.012;4.324;2022-08-03T01:12:54;15.82;;;3.53;;
35743;SDS011;21867;52.012;4.324;2022-08-03T01:15:24;10.05;;;3.65;;
35743;SDS011;21867;52.012;4.324;2022-08-03T01:17:55;10.83;;;3.00;;
35743;SDS011;21867;52.012;4.324;2022-08-03T01:20:24;11.85;;;3.20;;
35743;SDS011;21867;52.012;4.324;2022-08-03T01:22:59;12.95;;;3.90;;
35743;SDS011;21867;52.012;4.324;2022-08-03T01:25:33;9.50;;;2.80;;
35743;SDS011;21867;52.012;4.324;2022-08-03T01:28:12;10.37;;;2.63;;
35743;SDS011;21867;52.012;4.324;2022-08-03T01:30:45;11.10;;;3.70;;
35743;SDS011;21867;52.012;4.324;2022-08-03T01:33:14;14.15;;;2.85;;
35743;SDS011;21867;52.012;4.324;2022-08-03T01:35:44;17.05;;;3.92;;
35743;SDS011;21867;52.012;4.324;2022-08-03T01:38:14;11.00;;;3.05;;
35743;SDS011;21867;52.012;4.324;2022-08-03T01:40:44;10.38;;;3.10;;
35743;SDS011;21867;52.012;4.324;2022-08-03T01:43:14;12.35;;;3.58;;
35743;SDS011;21867;52.012;4.324;2022-08-03T01:46:03;10.88;;;3.28;;
35743;SDS011;21867;52.012;4.324;2022-08-03T01:48:31;12.57;;;2.70;;
35743;SDS011;21867;52.012;4.324;2022-08-03T01:50:59;6.93;;;2.05;;
35743;SDS011;21867;52.012;4.324;2022-08-03T01:53:27;8.85;;;2.55;;
35743;SDS011;21867;52.012;4.324;2022-08-03T01:55:55;11.48;;;2.58;;
35743;SDS011;21867;52.012;4.324;2022-08-03T01:58:23;7.10;;;2.58;;
35743;SDS011;21867;52.012;4.324;2022-08-03T02:00:50;12.20;;;3.13;;
35743;SDS011;21867;52.012;4.324;2022-08-03T02:03:20;9.17;;;2.47;;
35743;SDS011;21867;52.012;4.324;2022-08-03T02:05:49;5.07;;;2.80;;
35743;SDS011;21867;52.012;4.324;2022-08-03T02:08:40;10.32;;;2.75;;
35743;SDS011;21867;52.012;4.324;2022-08-03T02:11:09;8.43;;;2.60;;
35743;SDS011;21867;52.012;4.324;2022-08-03T02:13:54;13.85;;;2.65;;
35743;SDS011;21867;52.012;4.324;2022-08-03T02:16:23;10.82;;;2.63;;
35743;SDS011;21867;52.012;4.324;2022-08-03T02:18:53;7.10;;;2.42;;
35743;SDS011;21867;52.012;4.324;2022-08-03T02:21:21;7.60;;;2.67;;
35743;SDS011;21867;52.012;4.324;2022-08-03T02:24:08;5.93;;;2.78;;
35743;SDS011;21867;52.012;4.324;2022-08-03T02:26:37;8.77;;;2.70;;
35743;SDS011;21867;52.012;4.324;2022-08-03T02:29:06;9.93;;;2.33;;
35743;SDS011;21867;52.012;4.324;2022-08-03T02:31:36;11.25;;;2.67;;
35743;SDS011;21867;52.012;4.324;2022-08-03T02:34:05;10.93;;;1.85;;
35743;SDS011;21867;52.012;4.324;2022-08-03T02:36:35;7.00;;;2.45;;
35743;SDS011;21867;52.012;4.324;2022-08-03T02:39:03;10.90;;;3.08;;
35743;SDS011;21867;52.012;4.324;2022-08-03T02:41:34;9.90;;;3.20;;
35743;SDS011;21867;52.012;4.324;2022-08-03T02:44:06;16.70;;;3.10;;
35743;SDS011;21867;52.012;4.324;2022-08-03T02:46:34;5.95;;;2.83;;
35743;SDS011;21867;52.012;4.324;2022-08-03T02:49:04;14.07;;;3.10;;
35743;SDS011;21867;52.012;4.324;2022-08-03T02:51:52;9.07;;;3.35;;
35743;SDS011;21867;52.012;4.324;2022-08-03T02:54:21;8.15;;;2.50;;
35743;SDS011;21867;52.012;4.324;2022-08-03T02:56:48;10.05;;;2.50;;
35743;SDS011;21867;52.012;4.324;2022-08-03T02:59:16;8.47;;;2.70;;
35743;SDS011;21867;52.012;4.324;2022-08-03T03:01:44;12.65;;;3.05;;
35743;SDS011;21867;52.012;4.324;2022-08-03T03:04:13;10.23;;;2.67;;
35743;SDS011;21867;52.012;4.324;2022-08-03T03:06:42;5.55;;;3.10;;
35743;SDS011;21867;52.012;4.324;2022-08-03T03:09:12;11.40;;;3.90;;
35743;SDS011;21867;52.012;4.324;2022-08-03T03:11:40;12.32;;;3.13;;
35743;SDS011;21867;52.012;4.324;2022-08-03T03:14:08;12.97;;;3.23;;
35743;SDS011;21867;52.012;4.324;2022-08-03T03:16:37;13.60;;;3.23;;
35743;SDS011;21867;52.012;4.324;2022-08-03T03:19:05;8.43;;;2.60;;
35743;SDS011;21867;52.012;4.324;2022-08-03T03:21:35;9.47;;;2.77;;
35743;SDS011;21867;52.012;4.324;2022-08-03T03:24:03;7.22;;;3.15;;
35743;SDS011;21867;52.012;4.324;2022-08-03T03:26:31;6.87;;;2.83;;
35743;SDS011;21867;52.012;4.324;2022-08-03T03:32:12;13.10;;;3.80;;
35743;SDS011;21867;52.012;4.324;2022-08-03T03:34:40;9.17;;;3.43;;
35743;SDS011;21867;52.012;4.324;2022-08-03T03:37:10;11.60;;;2.90;;
35743;SDS011;21867;52.012;4.324;2022-08-03T03:39:38;16.33;;;3.00;;
35743;SDS011;21867;52.012;4.324;2022-08-03T03:42:06;9.83;;;2.80;;
35743;SDS011;21867;52.012;4.324;2022-08-03T03:44:33;13.60;;;3.03;;
35743;SDS011;21867;52.012;4.324;2022-08-03T03:47:10;11.00;;;3.00;;
35743;SDS011;21867;52.012;4.324;2022-08-03T03:49:38;8.27;;;2.40;;
35743;SDS011;21867;52.012;4.324;2022-08-03T03:52:06;12.00;;;3.57;;
35743;SDS011;21867;52.012;4.324;2022-08-03T03:54:43;11.10;;;2.93;;
35743;SDS011;21867;52.012;4.324;2022-08-03T03:57:29;12.67;;;3.10;;
35743;SDS011;21867;52.012;4.324;2022-08-03T04:03:50;10.00;;;2.87;;
35743;SDS011;21867;52.012;4.324;2022-08-03T04:06:17;9.27;;;3.13;;
35743;SDS011;21867;52.012;4.324;2022-08-03T04:08:45;11.57;;;2.80;;
35743;SDS011;21867;52.012;4.324;2022-08-03T04:11:17;15.97;;;4.27;;
35743;SDS011;21867;52.012;4.324;2022-08-03T04:13:56;5.50;;;2.67;;
35743;SDS011;21867;52.012;4.324;2022-08-03T04:19:25;13.03;;;3.30;;
35743;SDS011;21867;52.012;4.324;2022-08-03T04:21:55;10.63;;;3.00;;
35743;SDS011;21867;52.012;4.324;2022-08-03T04:24:23;14.30;;;3.80;;
35743;SDS011;21867;52.012;4.324;2022-08-03T04:26:53;10.07;;;3.40;;
35743;SDS011;21867;52.012;4.324;2022-08-03T04:29:22;9.43;;;3.20;;
35743;SDS011;21867;52.012;4.324;2022-08-03T04:31:52;12.00;;;3.23;;
35743;SDS011;21867;52.012;4.324;2022-08-03T04:34:20;13.27;;;3.47;;
35743;SDS011;21867;52.012;4.324;2022-08-03T04:36:48;12.33;;;3.67;;
35743;SDS011;21867;52.012;4.324;2022-08-03T04:39:17;10.33;;;3.17;;
35743;SDS011;21867;52.012;4.324;2022-08-03T04:41:47;11.90;;;2.73;;
35743;SDS011;21867;52.012;4.324;2022-08-03T04:44:36;13.67;;;3.27;;
35743;SDS011;21867;52.012;4.324;2022-08-03T04:47:04;11.67;;;3.20;;
35743;SDS011;21867;52.012;4.324;2022-08-03T04:49:32;7.07;;;2.60;;
35743;SDS011;21867;52.012;4.324;2022-08-03T04:52:01;9.70;;;3.40;;
35743;SDS011;21867;52.012;4.324;2022-08-03T04:54:29;23.00;;;3.87;;
35743;SDS011;21867;52.012;4.324;2022-08-03T04:56:56;10.23;;;3.37;;
35743;SDS011;21867;52.012;4.324;2022-08-03T04:59:23;11.33;;;3.67;;
35743;SDS011;21867;52.012;4.324;2022-08-03T05:01:52;14.40;;;3.67;;
35743;SDS011;21867;52.012;4.324;2022-08-03T05:04:37;11.43;;;3.57;;
35743;SDS011;21867;52.012;4.324;2022-08-03T05:07:14;9.90;;;2.80;;
35743;SDS011;21867;52.012;4.324;2022-08-03T05:09:49;10.07;;;2.87;;
35743;SDS011;21867;52.012;4.324;2022-08-03T05:12:18;11.37;;;3.57;;
35743;SDS011;21867;52.012;4.324;2022-08-03T05:14:45;8.60;;;2.87;;
35743;SDS011;21867;52.012;4.324;2022-08-03T05:17:14;12.17;;;3.90;;
35743;SDS011;21867;52.012;4.324;2022-08-03T05:19:41;10.13;;;3.10;;
35743;SDS011;21867;52.012;4.324;2022-08-03T05:22:10;8.93;;;3.60;;
35743;SDS011;21867;52.012;4.324;2022-08-03T05:24:37;15.00;;;3.27;;
35743;SDS011;21867;52.012;4.324;2022-08-03T05:27:04;14.00;;;3.30;;
35743;SDS011;21867;52.012;4.324;2022-08-03T05:29:31;10.03;;;2.57;;
35743;SDS011;21867;52.012;4.324;2022-08-03T05:32:19;11.20;;;3.37;;
35743;SDS011;21867;52.012;4.324;2022-08-03T05:34:46;14.00;;;3.47;;
35743;SDS011;21867;52.012;4.324;2022-08-03T05:37:14;9.50;;;3.00;;
35743;SDS011;21867;52.012;4.324;2022-08-03T05:39:41;13.70;;;3.57;;
35743;SDS011;21867;52.012;4.324;2022-08-03T05:42:08;12.40;;;3.93;;
35743;SDS011;21867;52.012;4.324;2022-08-03T05:44:35;14.83;;;4.17;;
35743;SDS011;21867;52.012;4.324;2022-08-03T05:47:03;13.43;;;4.00;;
35743;SDS011;21867;52.012;4.324;2022-08-03T05:49:32;11.90;;;4.63;;
35743;SDS011;21867;52.012;4.324;2022-08-03T05:51:59;17.50;;;3.93;;
35743;SDS011;21867;52.012;4.324;2022-08-03T05:54:43;11.03;;;3.97;;
35743;SDS011;21867;52.012;4.324;2022-08-03T05:57:22;11.37;;;3.43;;
35743;SDS011;21867;52.012;4.324;2022-08-03T05:59:53;12.63;;;3.40;;
35743;SDS011;21867;52.012;4.324;2022-08-03T06:02:36;15.97;;;3.90;;
35743;SDS011;21867;52.012;4.324;2022-08-03T06:05:22;15.90;;;4.03;;
35743;SDS011;21867;52.012;4.324;2022-08-03T06:07:49;15.50;;;4.70;;
35743;SDS011;21867;52.012;4.324;2022-08-03T06:10:16;17.77;;;3.83;;
35743;SDS011;21867;52.012;4.324;2022-08-03T06:13:03;15.10;;;4.20;;
35743;SDS011;21867;52.012;4.324;2022-08-03T06:15:30;16.43;;;5.40;;
35743;SDS011;21867;52.012;4.324;2022-08-03T06:17:58;14.70;;;4.80;;
35743;SDS011;21867;52.012;4.324;2022-08-03T06:20:29;16.37;;;4.50;;
35743;SDS011;21867;52.012;4.324;2022-08-03T06:22:56;17.53;;;5.23;;
35743;SDS011;21867;52.012;4.324;2022-08-03T06:25:26;14.10;;;4.70;;
35743;SDS011;21867;52.012;4.324;2022-08-03T06:27:53;18.70;;;5.00;;
35743;SDS011;21867;52.012;4.324;2022-08-03T06:30:39;9.17;;;4.40;;
35743;SDS011;21867;52.012;4.324;2022-08-03T06:36:41;12.73;;;3.93;;
35743;SDS011;21867;52.012;4.324;2022-08-03T06:39:08;15.57;;;5.10;;
35743;SDS011;21867;52.012;4.324;2022-08-03T06:41:35;14.17;;;5.00;;
35743;SDS011;21867;52.012;4.324;2022-08-03T06:44:06;9.17;;;4.70;;
35743;SDS011;21867;52.012;4.324;2022-08-03T06:46:35;12.27;;;4.50;;
35743;SDS011;21867;52.012;4.324;2022-08-03T06:51:36;17.33;;;5.33;;
35743;SDS011;21867;52.012;4.324;2022-08-03T06:54:25;14.60;;;4.83;;
35743;SDS011;21867;52.012;4.324;2022-08-03T06:56:52;18.90;;;5.50;;
35743;SDS011;21867;52.012;4.324;2022-08-03T06:59:26;14.03;;;4.83;;
35743;SDS011;21867;52.012;4.324;2022-08-03T07:04:59;14.47;;;4.30;;
35743;SDS011;21867;52.012;4.324;2022-08-03T07:07:26;13.60;;;5.27;;
35743;SDS011;21867;52.012;4.324;2022-08-03T07:09:55;13.33;;;4.97;;
35743;SDS011;21867;52.012;4.324;2022-08-03T07:12:24;13.77;;;5.60;;
35743;SDS011;21867;52.012;4.324;2022-08-03T07:14:51;15.57;;;5.23;;
35743;SDS011;21867;52.012;4.324;2022-08-03T07:17:25;16.97;;;5.23;;
35743;SDS011;21867;52.012;4.324;2022-08-03T07:19:52;15.87;;;4.40;;
35743;SDS011;21867;52.012;4.324;2022-08-03T07:22:20;17.77;;;6.00;;
35743;SDS011;21867;52.012;4.324;2022-08-03T07:24:47;13.60;;;5.53;;
35743;SDS011;21867;52.012;4.324;2022-08-03T07:27:16;14.73;;;5.00;;
35743;SDS011;21867;52.012;4.324;2022-08-03T07:29:44;16.93;;;6.20;;
35743;SDS011;21867;52.012;4.324;2022-08-03T07:34:59;18.33;;;5.37;;
35743;SDS011;21867;52.012;4.324;2022-08-03T07:37:33;9.63;;;4.60;;
35743;SDS011;21867;52.012;4.324;2022-08-03T07:40:01;12.77;;;5.00;;
35743;SDS011;21867;52.012;4.324;2022-08-03T07:42:30;16.20;;;5.33;;
35743;SDS011;21867;52.012;4.324;2022-08-03T07:44:58;13.50;;;5.03;;
35743;SDS011;21867;52.012;4.324;2022-08-03T07:47:25;14.67;;;5.57;;
35743;SDS011;21867;52.012;4.324;2022-08-03T07:50:01;12.93;;;5.10;;
35743;SDS011;21867;52.012;4.324;2022-08-03T07:52:29;17.70;;;6.70;;
35743;SDS011;21867;52.012;4.324;2022-08-03T07:54:56;19.13;;;6.53;;
35743;SDS011;21867;52.012;4.324;2022-08-03T07:57:23;15.67;;;6.87;;
35743;SDS011;21867;52.012;4.324;2022-08-03T07:59:52;18.00;;;7.57;;
35743;SDS011;21867;52.012;4.324;2022-08-03T08:02:37;8.97;;;5.97;;
35743;SDS011;21867;52.012;4.324;2022-08-03T08:05:04;12.60;;;6.57;;
35743;SDS011;21867;52.012;4.324;2022-08-03T08:10:18;12.03;;;6.70;;
35743;SDS011;21867;52.012;4.324;2022-08-03T08:12:45;11.85;;;5.47;;
35743;SDS011;21867;52.012;4.324;2022-08-03T08:15:14;18.23;;;7.00;;
35743;SDS011;21867;52.012;4.324;2022-08-03T08:17:42;14.13;;;6.70;;
35743;SDS011;21867;52.012;4.324;2022-08-03T08:20:10;13.43;;;6.13;;
35743;SDS011;21867;52.012;4.324;2022-08-03T08:22:37;11.83;;;5.63;;
35743;SDS011;21867;52.012;4.324;2022-08-03T08:25:06;15.33;;;6.90;;
35743;SDS011;21867;52.012;4.324;2022-08-03T08:27:33;12.47;;;6.10;;
35743;SDS011;21867;52.012;4.324;2022-08-03T08:30:28;12.57;;;6.70;;
35743;SDS011;21867;52.012;4.324;2022-08-03T08:32:56;9.53;;;3.90;;
35743;SDS011;21867;52.012;4.324;2022-08-03T08:35:23;16.98;;;6.97;;
35743;SDS011;21867;52.012;4.324;2022-08-03T08:37:51;6.00;;;4.57;;
35743;SDS011;21867;52.012;4.324;2022-08-03T08:40:19;10.52;;;4.72;;
35743;SDS011;21867;52.012;4.324;2022-08-03T08:42:47;12.50;;;5.03;;
35743;SDS011;21867;52.012;4.324;2022-08-03T08:45:24;14.10;;;4.95;;
35743;SDS011;21867;52.012;4.324;2022-08-03T08:47:53;11.73;;;5.05;;
35743;SDS011;21867;52.012;4.324;2022-08-03T08:50:27;16.20;;;5.82;;
35743;SDS011;21867;52.012;4.324;2022-08-03T08:52:55;14.07;;;5.32;;
35743;SDS011;21867;52.012;4.324;2022-08-03T08:55:24;14.00;;;6.43;;
35743;SDS011;21867;52.012;4.324;2022-08-03T08:57:54;13.45;;;5.75;;
35743;SDS011;21867;52.012;4.324;2022-08-03T09:00:23;21.55;;;6.05;;
35743;SDS011;21867;52.012;4.324;2022-08-03T09:02:50;12.00;;;5.13;;
35743;SDS011;21867;52.012;4.324;2022-08-03T09:05:19;15.57;;;5.88;;
35743;SDS011;21867;52.012;4.324;2022-08-03T09:08:06;18.42;;;6.43;;
35743;SDS011;21867;52.012;4.324;2022-08-03T09:10:34;13.40;;;5.63;;
35743;SDS011;21867;52.012;4.324;2022-08-03T09:13:01;17.13;;;5.18;;
35743;SDS011;21867;52.012;4.324;2022-08-03T09:15:29;9.45;;;4.70;;
35743;SDS011;21867;52.012;4.324;2022-08-03T09:17:57;12.13;;;4.30;;
35743;SDS011;21867;52.012;4.324;2022-08-03T09:20:27;18.15;;;5.25;;
35743;SDS011;21867;52.012;4.324;2022-08-03T09:22:55;18.40;;;4.93;;
35743;SDS011;21867;52.012;4.324;2022-08-03T09:25:27;15.50;;;5.47;;
35743;SDS011;21867;52.012;4.324;2022-08-03T09:27:56;15.57;;;4.80;;
35743;SDS011;21867;52.012;4.324;2022-08-03T09:30:30;16.63;;;4.38;;
35743;SDS011;21867;52.012;4.324;2022-08-03T09:33:00;11.68;;;3.42;;
35743;SDS011;21867;52.012;4.324;2022-08-03T09:35:28;11.40;;;4.25;;
35743;SDS011;21867;52.012;4.324;2022-08-03T09:38:16;8.95;;;3.80;;
35743;SDS011;21867;52.012;4.324;2022-08-03T09:40:44;10.40;;;3.60;;
35743;SDS011;21867;52.012;4.324;2022-08-03T09:43:28;13.30;;;3.58;;
35743;SDS011;21867;52.012;4.324;2022-08-03T09:46:18;14.75;;;4.07;;
35743;SDS011;21867;52.012;4.324;2022-08-03T09:48:45;13.65;;;3.47;;
35743;SDS011;21867;52.012;4.324;2022-08-03T09:51:14;18.58;;;5.20;;
35743;SDS011;21867;52.012;4.324;2022-08-03T09:54:01;11.07;;;3.95;;
35743;SDS011;21867;52.012;4.324;2022-08-03T09:56:38;8.55;;;3.42;;
35743;SDS011;21867;52.012;4.324;2022-08-03T09:59:06;15.48;;;4.03;;
35743;SDS011;21867;52.012;4.324;2022-08-03T10:01:33;17.13;;;4.68;;
35743;SDS011;21867;52.012;4.324;2022-08-03T10:04:01;18.45;;;4.90;;
35743;SDS011;21867;52.012;4.324;2022-08-03T10:06:32;13.55;;;4.50;;
35743;SDS011;21867;52.012;4.324;2022-08-03T10:09:06;10.68;;;3.90;;
35743;SDS011;21867;52.012;4.324;2022-08-03T10:11:33;11.73;;;4.72;;
35743;SDS011;21867;52.012;4.324;2022-08-03T10:14:07;17.35;;;4.43;;
35743;SDS011;21867;52.012;4.324;2022-08-03T10:16:36;12.23;;;4.07;;
35743;SDS011;21867;52.012;4.324;2022-08-03T10:19:05;10.30;;;3.30;;
35743;SDS011;21867;52.012;4.324;2022-08-03T10:21:34;18.25;;;4.93;;
35743;SDS011;21867;52.012;4.324;2022-08-03T10:24:23;11.63;;;4.45;;
35743;SDS011;21867;52.012;4.324;2022-08-03T10:27:05;7.47;;;3.10;;
35743;SDS011;21867;52.012;4.324;2022-08-03T10:29:34;11.27;;;3.65;;
35743;SDS011;21867;52.012;4.324;2022-08-03T10:32:03;13.90;;;4.22;;
35743;SDS011;21867;52.012;4.324;2022-08-03T10:34:32;15.30;;;4.10;;
35743;SDS011;21867;52.012;4.324;2022-08-03T10:37:01;17.55;;;4.95;;
35743;SDS011;21867;52.012;4.324;2022-08-03T10:39:29;6.70;;;3.28;;
35743;SDS011;21867;52.012;4.324;2022-08-03T10:41:57;9.40;;;3.97;;
35743;SDS011;21867;52.012;4.324;2022-08-03T10:44:29;8.38;;;2.83;;
35743;SDS011;21867;52.012;4.324;2022-08-03T10:46:58;12.43;;;3.60;;
35743;SDS011;21867;52.012;4.324;2022-08-03T10:49:25;15.07;;;3.70;;
35743;SDS011;21867;52.012;4.324;2022-08-03T10:52:02;9.77;;;3.30;;
35743;SDS011;21867;52.012;4.324;2022-08-03T10:54:50;18.83;;;3.65;;
35743;SDS011;21867;52.012;4.324;2022-08-03T11:00:01;10.00;;;3.33;;
35743;SDS011;21867;52.012;4.324;2022-08-03T11:05:23;12.25;;;3.53;;
35743;SDS011;21867;52.012;4.324;2022-08-03T11:07:54;10.27;;;3.22;;
35743;SDS011;21867;52.012;4.324;2022-08-03T11:10:41;9.07;;;3.80;;
35743;SDS011;21867;52.012;4.324;2022-08-03T11:19:02;13.35;;;4.15;;
35743;SDS011;21867;52.012;4.324;2022-08-03T11:36:31;18.50;;;3.58;;
35743;SDS011;21867;52.012;4.324;2022-08-03T11:39:18;9.15;;;3.05;;
35743;SDS011;21867;52.012;4.324;2022-08-03T11:41:46;14.55;;;3.85;;
35743;SDS011;21867;52.012;4.324;2022-08-03T11:46:55;12.38;;;3.28;;
35743;SDS011;21867;52.012;4.324;2022-08-03T11:49:23;11.35;;;3.33;;
35743;SDS011;21867;52.012;4.324;2022-08-03T11:51:53;14.10;;;3.67;;
35743;SDS011;21867;52.012;4.324;2022-08-03T11:54:21;14.02;;;3.38;;
35743;SDS011;21867;52.012;4.324;2022-08-03T11:56:49;10.23;;;3.50;;
35743;SDS011;21867;52.012;4.324;2022-08-03T11:59:16;13.88;;;3.55;;
35743;SDS011;21867;52.012;4.324;2022-08-03T12:04:48;13.70;;;3.88;;
35743;SDS011;21867;52.012;4.324;2022-08-03T12:07:17;10.07;;;2.90;;
35743;SDS011;21867;52.012;4.324;2022-08-03T12:10:05;10.00;;;3.00;;
35743;SDS011;21867;52.012;4.324;2022-08-03T12:12:53;6.53;;;3.22;;
35743;SDS011;21867;52.012;4.324;2022-08-03T12:16:25;11.77;;;3.30;;
35743;SDS011;21867;52.012;4.324;2022-08-03T12:18:56;11.32;;;3.55;;
35743;SDS011;21867;52.012;4.324;2022-08-03T12:21:23;15.98;;;3.10;;
35743;SDS011;21867;52.012;4.324;2022-08-03T12:23:56;9.95;;;2.67;;
35743;SDS011;21867;52.012;4.324;2022-08-03T12:26:24;11.40;;;3.78;;
35743;SDS011;21867;52.012;4.324;2022-08-03T12:28:51;8.07;;;3.05;;
35743;SDS011;21867;52.012;4.324;2022-08-03T12:31:19;8.80;;;3.05;;
35743;SDS011;21867;52.012;4.324;2022-08-03T12:33:56;6.20;;;2.70;;
35743;SDS011;21867;52.012;4.324;2022-08-03T12:36:24;16.05;;;3.97;;
35743;SDS011;21867;52.012;4.324;2022-08-03T12:38:56;11.13;;;3.80;;
35743;SDS011;21867;52.012;4.324;2022-08-03T12:41:29;10.23;;;3.55;;
35743;SDS011;21867;52.012;4.324;2022-08-03T12:43:56;9.07;;;3.78;;
35743;SDS011;21867;52.012;4.324;2022-08-03T13:06:02;9.27;;;3.33;;
35743;SDS011;21867;52.012;4.324;2022-08-03T13:08:29;12.07;;;3.30;;
35743;SDS011;21867;52.012;4.324;2022-08-03T13:10:56;8.88;;;3.17;;
35743;SDS011;21867;52.012;4.324;2022-08-03T13:13:39;8.75;;;2.95;;
35743;SDS011;21867;52.012;4.324;2022-08-03T13:19:02;10.38;;;3.17;;
35743;SDS011;21867;52.012;4.324;2022-08-03T13:21:30;8.85;;;3.22;;
35743;SDS011;21867;52.012;4.324;2022-08-03T13:23:57;9.02;;;3.53;;
35743;SDS011;21867;52.012;4.324;2022-08-03T13:26:25;11.75;;;3.30;;
35743;SDS011;21867;52.012;4.324;2022-08-03T13:28:52;9.35;;;2.70;;
35743;SDS011;21867;52.012;4.324;2022-08-03T13:31:19;10.98;;;3.13;;
35743;SDS011;21867;52.012;4.324;2022-08-03T13:33:47;7.32;;;2.58;;
35743;SDS011;21867;52.012;4.324;2022-08-03T13:36:14;8.68;;;2.60;;
35743;SDS011;21867;52.012;4.324;2022-08-03T13:38:43;11.13;;;2.85;;
35743;SDS011;21867;52.012;4.324;2022-08-03T13:41:10;8.50;;;2.67;;
35743;SDS011;21867;52.012;4.324;2022-08-03T13:43:41;10.88;;;3.13;;
35743;SDS011;21867;52.012;4.324;2022-08-03T14:08:40;8.23;;;1.85;;
35743;SDS011;21867;52.012;4.324;2022-08-03T14:11:08;6.45;;;1.92;;
35743;SDS011;21867;52.012;4.324;2022-08-03T14:13:35;4.13;;;1.73;;
35743;SDS011;21867;52.012;4.324;2022-08-03T14:16:03;7.15;;;2.00;;
35743;SDS011;21867;52.012;4.324;2022-08-03T14:18:35;4.82;;;1.50;;
35743;SDS011;21867;52.012;4.324;2022-08-03T14:40:44;4.05;;;1.48;;
35743;SDS011;21867;52.012;4.324;2022-08-03T14:43:12;5.05;;;1.52;;
35743;SDS011;21867;52.012;4.324;2022-08-03T14:45:39;5.47;;;1.63;;
35743;SDS011;21867;52.012;4.324;2022-08-03T14:48:06;4.70;;;2.75;;
35743;SDS011;21867;52.012;4.324;2022-08-03T14:56:29;2.78;;;1.55;;
35743;SDS011;21867;52.012;4.324;2022-08-03T14:58:56;4.57;;;1.63;;
35743;SDS011;21867;52.012;4.324;2022-08-03T15:01:23;4.60;;;1.40;;
35743;SDS011;21867;52.012;4.324;2022-08-03T15:04:11;1.80;;;1.30;;
35743;SDS011;21867;52.012;4.324;2022-08-03T15:06:44;4.15;;;1.52;;
35743;SDS011;21867;52.012;4.324;2022-08-03T15:09:16;2.25;;;1.40;;
35743;SDS011;21867;52.012;4.324;2022-08-03T15:11:50;4.43;;;1.63;;
35743;SDS011;21867;52.012;4.324;2022-08-03T15:14:18;6.28;;;1.67;;
35743;SDS011;21867;52.012;4.324;2022-08-03T15:16:58;3.60;;;1.63;;
35743;SDS011;21867;52.012;4.324;2022-08-03T15:19:25;7.80;;;2.20;;
35743;SDS011;21867;52.012;4.324;2022-08-03T15:22:12;3.22;;;1.42;;
35743;SDS011;21867;52.012;4.324;2022-08-03T15:24:44;5.35;;;1.17;;
35743;SDS011;21867;52.012;4.324;2022-08-03T15:27:12;8.30;;;1.45;;
35743;SDS011;21867;52.012;4.324;2022-08-03T15:29:40;3.88;;;1.30;;
35743;SDS011;21867;52.012;4.324;2022-08-03T15:32:27;3.33;;;1.58;;
35743;SDS011;21867;52.012;4.324;2022-08-03T15:34:59;3.25;;;1.55;;
35743;SDS011;21867;52.012;4.324;2022-08-03T15:37:45;5.38;;;1.10;;
35743;SDS011;21867;52.012;4.324;2022-08-03T15:40:12;7.00;;;1.90;;
35743;SDS011;21867;52.012;4.324;2022-08-03T15:42:41;1.35;;;1.08;;
35743;SDS011;21867;52.012;4.324;2022-08-03T15:45:08;3.92;;;1.80;;
35743;SDS011;21867;52.012;4.324;2022-08-03T15:47:38;3.83;;;1.50;;
35743;SDS011;21867;52.012;4.324;2022-08-03T15:50:05;4.90;;;1.48;;
35743;SDS011;21867;52.012;4.324;2022-08-03T15:52:35;5.47;;;1.80;;
35743;SDS011;21867;52.012;4.324;2022-08-03T15:55:02;12.18;;;1.90;;
35743;SDS011;21867;52.012;4.324;2022-08-03T15:57:30;9.40;;;1.80;;
35743;SDS011;21867;52.012;4.324;2022-08-03T15:59:59;3.83;;;1.50;;
35743;SDS011;21867;52.012;4.324;2022-08-03T16:02:27;6.40;;;1.80;;
35743;SDS011;21867;52.012;4.324;2022-08-03T16:04:54;3.10;;;1.23;;
35743;SDS011;21867;52.012;4.324;2022-08-03T16:07:22;4.22;;;1.52;;
35743;SDS011;21867;52.012;4.324;2022-08-03T16:09:49;3.65;;;1.92;;
35743;SDS011;21867;52.012;4.324;2022-08-03T16:12:16;6.95;;;1.67;;
35743;SDS011;21867;52.012;4.324;2022-08-03T16:14:44;5.72;;;1.90;;
35743;SDS011;21867;52.012;4.324;2022-08-03T16:17:20;6.70;;;2.00;;
35743;SDS011;21867;52.012;4.324;2022-08-03T16:19:48;3.70;;;2.05;;
35743;SDS011;21867;52.012;4.324;2022-08-03T16:25:24;5.85;;;1.92;;
35743;SDS011;21867;52.012;4.324;2022-08-03T16:27:52;2.67;;;1.50;;
35743;SDS011;21867;52.012;4.324;2022-08-03T16:30:33;3.72;;;1.30;;
35743;SDS011;21867;52.012;4.324;2022-08-03T16:33:02;5.20;;;1.88;;
35743;SDS011;21867;52.012;4.324;2022-08-03T16:35:35;3.90;;;1.92;;
35743;SDS011;21867;52.012;4.324;2022-08-03T16:40:58;11.43;;;1.75;;
35743;SDS011;21867;52.012;4.324;2022-08-03T16:43:25;4.75;;;1.90;;
35743;SDS011;21867;52.012;4.324;2022-08-03T16:45:52;2.42;;;1.38;;
35743;SDS011;21867;52.012;4.324;2022-08-03T16:48:21;6.70;;;2.10;;
35743;SDS011;21867;52.012;4.324;2022-08-03T16:50:48;3.90;;;1.27;;
35743;SDS011;21867;52.012;4.324;2022-08-03T16:53:15;5.32;;;1.88;;
35743;SDS011;21867;52.012;4.324;2022-08-03T16:55:59;7.97;;;1.73;;
35743;SDS011;21867;52.012;4.324;2022-08-03T16:58:26;6.13;;;1.35;;
35743;SDS011;21867;52.012;4.324;2022-08-03T17:01:07;6.72;;;1.92;;
35743;SDS011;21867;52.012;4.324;2022-08-03T17:03:50;4.90;;;1.63;;
35743;SDS011;21867;52.012;4.324;2022-08-03T17:06:29;3.35;;;1.70;;
35743;SDS011;21867;52.012;4.324;2022-08-03T17:09:00;6.10;;;1.52;;
35743;SDS011;21867;52.012;4.324;2022-08-03T17:11:28;3.60;;;1.65;;
35743;SDS011;21867;52.012;4.324;2022-08-03T17:13:58;3.55;;;1.60;;